createdAt,value
2023-02-11T00:01:31.055Z,100884.44
2023-02-11T00:04:00.342Z,100881.00
2023-02-11T00:06:32.463Z,100877.94
2023-02-11T00:09:00.586Z,100883.88
2023-02-11T00:11:30.384Z,100883.56
2023-02-11T00:14:05.199Z,100888.94
2023-02-11T00:16:32.971Z,100879.09
2023-02-11T00:19:02.424Z,100878.81
2023-02-11T00:21:30.519Z,100884.16
2023-02-11T00:24:00.253Z,100879.00
2023-02-11T00:26:33.230Z,100875.09
2023-02-11T00:29:01.978Z,100875.34
2023-02-11T00:31:33.130Z,100878.75
2023-02-11T00:34:01.538Z,100885.69
2023-02-11T00:36:30.289Z,100876.56
2023-02-11T00:38:59.101Z,100874.78
2023-02-11T00:41:27.196Z,100881.53
2023-02-11T00:43:54.755Z,100877.91
2023-02-11T00:46:23.566Z,100867.06
2023-02-11T00:48:53.291Z,100870.66
2023-02-11T00:51:22.471Z,100865.16
2023-02-11T00:53:50.559Z,100866.63
2023-02-11T00:56:18.476Z,100861.75
2023-02-11T00:58:46.501Z,100863.66
2023-02-11T01:01:14.518Z,100863.25
2023-02-11T01:03:44.050Z,100870.72
2023-02-11T01:06:12.611Z,100858.88
2023-02-11T01:08:40.571Z,100865.22
2023-02-11T01:11:16.666Z,100865.97
2023-02-11T01:13:48.385Z,100855.38
2023-02-11T01:16:18.078Z,100852.72
2023-02-11T01:18:47.253Z,100846.81
2023-02-11T01:21:15.168Z,100850.16
2023-02-11T01:23:43.983Z,100835.88
2023-02-11T01:26:12.988Z,100833.84
2023-02-11T01:28:40.655Z,100823.31
2023-02-11T01:31:08.284Z,100823.25
2023-02-11T01:33:35.948Z,100828.88
2023-02-11T01:36:06.420Z,100831.78
2023-02-11T01:38:34.564Z,100829.31
2023-02-11T01:41:09.859Z,100830.81
2023-02-11T01:43:42.382Z,100825.88
2023-02-11T01:46:33.646Z,100826.03
2023-02-11T01:49:11.669Z,100824.06
2023-02-11T01:52:02.228Z,100830.22
2023-02-11T01:54:54.951Z,100825.81
2023-02-11T01:57:28.191Z,100817.75
2023-02-11T02:00:09.740Z,100825.75
2023-02-11T02:03:20.245Z,100823.25
2023-02-11T02:06:27.199Z,100812.38
2023-02-11T02:09:10.085Z,100802.53
2023-02-11T02:11:38.143Z,100809.63
2023-02-11T02:14:08.609Z,100805.16
2023-02-11T02:16:37.829Z,100806.88
2023-02-11T02:20:16.363Z,100804.59
2023-02-11T02:22:55.856Z,100805.34
2023-02-11T02:25:57.770Z,100805.38
2023-02-11T02:29:22.619Z,100797.44
2023-02-11T02:32:30.140Z,100798.59
2023-02-11T02:35:24.102Z,100791.59
2023-02-11T02:38:06.920Z,100790.53
2023-02-11T02:40:59.730Z,100786.75
2023-02-11T02:43:29.442Z,100776.16
2023-02-11T02:46:13.122Z,100784.25
2023-02-11T02:48:40.787Z,100777.31
2023-02-11T02:51:31.537Z,100772.91
2023-02-11T02:54:17.666Z,100775.72
2023-02-11T02:57:25.735Z,100768.41
2023-02-11T03:00:21.176Z,100748.94
2023-02-11T03:03:06.727Z,100755.13
2023-02-11T03:06:11.561Z,100750.81
2023-02-11T03:08:53.057Z,100753.63
2023-02-11T03:11:21.979Z,100764.13
2023-02-11T03:13:51.606Z,100754.59
2023-02-11T03:16:26.631Z,100754.50
2023-02-11T03:19:07.474Z,100758.00
2023-02-11T03:21:39.435Z,100745.81
2023-02-11T03:24:41.390Z,100752.84
2023-02-11T03:27:21.222Z,100749.50
2023-02-11T03:30:19.080Z,100743.97
2023-02-11T03:33:27.700Z,100745.81
2023-02-11T03:36:00.628Z,100745.94
2023-02-11T03:38:38.736Z,100747.56
2023-02-11T03:41:08.723Z,100751.31
2023-02-11T03:43:56.139Z,100760.19
2023-02-11T03:46:32.233Z,100759.53
2023-02-11T03:49:07.120Z,100756.34
2023-02-11T03:51:36.039Z,100758.81
2023-02-11T03:54:12.498Z,100757.66
2023-02-11T03:56:53.032Z,100751.69
2023-02-11T03:59:20.825Z,100748.53
2023-02-11T04:01:48.681Z,100748.78
2023-02-11T04:04:16.846Z,100755.06
2023-02-11T04:06:44.585Z,100750.94
2023-02-11T04:09:12.802Z,100751.31
2023-02-11T04:11:40.383Z,100757.44
2023-02-11T04:14:08.649Z,100765.50
2023-02-11T04:16:36.466Z,100765.56
2023-02-11T04:19:04.118Z,100768.44
2023-02-11T04:21:31.891Z,100773.81
2023-02-11T04:23:59.532Z,100773.09
2023-02-11T04:26:27.144Z,100776.44
2023-02-11T04:28:54.706Z,100780.16
2023-02-11T04:31:22.410Z,100783.84
2023-02-11T04:33:50.155Z,100778.66
2023-02-11T04:36:17.810Z,100777.47
2023-02-11T04:38:45.352Z,100778.63
2023-02-11T04:41:12.984Z,100770.94
2023-02-11T04:43:40.620Z,100777.88
2023-02-11T04:46:08.287Z,100776.84
2023-02-11T04:48:35.970Z,100773.88
2023-02-11T04:51:04.041Z,100771.34
2023-02-11T04:53:31.800Z,100769.00
2023-02-11T04:55:59.805Z,100771.75
2023-02-11T04:58:27.582Z,100767.03
2023-02-11T05:00:55.256Z,100770.00
2023-02-11T05:03:22.905Z,100767.91
2023-02-11T05:05:51.307Z,100758.38
2023-02-11T05:08:19.060Z,100765.78
2023-02-11T05:10:48.084Z,100751.47
2023-02-11T05:13:15.628Z,100755.31
2023-02-11T05:15:43.182Z,100741.78
2023-02-11T05:18:10.819Z,100745.72
2023-02-11T05:20:39.348Z,100731.72
2023-02-11T05:23:07.252Z,100719.91
2023-02-11T05:25:34.951Z,100714.50
2023-02-11T05:28:02.548Z,100705.78
2023-02-11T05:30:30.942Z,100700.38
2023-02-11T05:32:58.913Z,100697.69
2023-02-11T05:35:26.471Z,100698.06
2023-02-11T05:37:54.095Z,100693.09
2023-02-11T05:40:21.968Z,100690.81
2023-02-11T05:42:49.612Z,100695.44
2023-02-11T05:45:17.285Z,100700.00
2023-02-11T05:47:45.122Z,100703.03
2023-02-11T05:50:12.920Z,100721.09
2023-02-11T05:52:40.725Z,100710.13
2023-02-11T05:55:08.823Z,100706.91
2023-02-11T05:57:36.414Z,100698.28
2023-02-11T06:00:05.701Z,100689.50
2023-02-11T06:02:40.781Z,100687.16
2023-02-11T06:05:09.076Z,100691.34
2023-02-11T06:07:36.580Z,100695.81
2023-02-11T06:10:04.760Z,100698.56
2023-02-11T06:12:32.297Z,100692.66
2023-02-11T06:14:59.818Z,100711.72
2023-02-11T06:17:42.601Z,100722.47
2023-02-11T06:20:11.549Z,100714.47
2023-02-11T06:22:39.556Z,100716.28
2023-02-11T06:25:07.431Z,100713.72
2023-02-11T06:27:35.303Z,100719.88
2023-02-11T06:30:05.055Z,100715.78
2023-02-11T06:32:44.680Z,100718.78
2023-02-11T06:35:14.438Z,100709.66
2023-02-11T06:37:42.135Z,100715.69
2023-02-11T06:40:11.798Z,100716.06
2023-02-11T06:42:39.763Z,100712.88
2023-02-11T06:45:10.715Z,100712.06
2023-02-11T06:47:39.988Z,100720.22
2023-02-11T06:50:11.653Z,100717.66
2023-02-11T06:52:39.239Z,100727.28
2023-02-11T06:55:07.459Z,100723.91
2023-02-11T06:57:35.140Z,100730.31
2023-02-11T07:00:02.955Z,100721.59
2023-02-11T07:02:31.742Z,100722.41
2023-02-11T07:04:59.337Z,100735.03
2023-02-11T07:07:28.361Z,100730.56
2023-02-11T07:09:55.861Z,100736.47
2023-02-11T07:12:23.749Z,100728.22
2023-02-11T07:14:51.449Z,100738.34
2023-02-11T07:17:19.109Z,100739.91
2023-02-11T07:19:46.656Z,100732.03
2023-02-11T07:22:14.627Z,100724.47
2023-02-11T07:24:42.266Z,100723.63
2023-02-11T07:27:09.916Z,100722.03
2023-02-11T07:29:37.777Z,100722.25
2023-02-11T07:32:05.857Z,100714.06
2023-02-11T07:34:33.619Z,100704.72
2023-02-11T07:37:01.335Z,100715.53
2023-02-11T07:39:29.414Z,100713.00
2023-02-11T07:41:57.479Z,100720.41
2023-02-11T07:44:25.770Z,100732.28
2023-02-11T07:46:53.469Z,100728.81
2023-02-11T07:49:21.028Z,100727.41
2023-02-11T07:51:49.211Z,100725.53
2023-02-11T07:54:17.494Z,100717.88
2023-02-11T07:56:45.040Z,100712.69
2023-02-11T07:59:13.022Z,100717.19
2023-02-11T08:01:40.530Z,100711.91
2023-02-11T08:04:08.077Z,100718.19
2023-02-11T08:06:42.259Z,100708.31
2023-02-11T08:09:14.665Z,100704.66
2023-02-11T08:11:42.765Z,100711.91
2023-02-11T08:14:11.224Z,100703.06
2023-02-11T08:16:40.233Z,100703.91
2023-02-11T08:19:16.755Z,100705.84
2023-02-11T08:21:45.096Z,100708.59
2023-02-11T08:24:14.619Z,100713.25
2023-02-11T08:26:42.386Z,100710.84
2023-02-11T08:29:14.413Z,100707.31
2023-02-11T08:31:45.551Z,100713.78
2023-02-11T08:34:14.537Z,100720.00
2023-02-11T08:36:43.738Z,100721.59
2023-02-11T08:39:20.992Z,100723.41
2023-02-11T08:41:54.032Z,100721.63
2023-02-11T08:44:22.967Z,100719.88
2023-02-11T08:46:51.365Z,100728.56
2023-02-11T08:49:19.787Z,100722.00
2023-02-11T08:51:49.749Z,100726.09
2023-02-11T08:54:17.898Z,100730.44
2023-02-11T08:56:45.864Z,100725.44
2023-02-11T08:59:15.456Z,100722.03
2023-02-11T09:01:44.370Z,100711.69
2023-02-11T09:04:12.500Z,100713.63
2023-02-11T09:06:40.561Z,100708.50
2023-02-11T09:09:13.615Z,100714.97
2023-02-11T09:11:43.817Z,100717.88
2023-02-11T09:14:21.940Z,100719.78
2023-02-11T09:16:51.510Z,100719.59
2023-02-11T09:19:20.296Z,100714.31
2023-02-11T09:21:47.967Z,100715.75
2023-02-11T09:24:15.724Z,100711.66
2023-02-11T09:26:44.099Z,100702.97
2023-02-11T09:29:12.689Z,100698.09
2023-02-11T09:31:40.652Z,100694.63
2023-02-11T09:34:08.904Z,100694.50
2023-02-11T09:36:40.263Z,100686.75
2023-02-11T09:39:14.477Z,100693.22
2023-02-11T09:42:02.440Z,100681.38
2023-02-11T09:44:34.857Z,100683.41
2023-02-11T09:47:29.894Z,100688.00
2023-02-11T09:50:11.817Z,100684.47
2023-02-11T09:53:03.879Z,100686.47
2023-02-11T09:55:42.374Z,100686.50
2023-02-11T09:58:31.805Z,100686.50
2023-02-11T10:01:23.501Z,100688.28
2023-02-11T10:04:19.457Z,100690.06
2023-02-11T10:06:55.459Z,100688.25
2023-02-11T10:09:50.811Z,100691.69
2023-02-11T10:12:59.874Z,100692.56
2023-02-11T10:15:27.502Z,100694.28
2023-02-11T10:18:05.827Z,100695.13
2023-02-11T10:21:00.427Z,100690.78
2023-02-11T10:23:34.530Z,100686.16
2023-02-11T10:26:03.048Z,100686.03
2023-02-11T10:28:36.344Z,100687.72
2023-02-11T10:31:19.962Z,100692.84
2023-02-11T10:34:04.685Z,100688.50
2023-02-11T10:36:37.519Z,100688.31
2023-02-11T10:39:18.119Z,100689.13
2023-02-11T10:41:57.154Z,100682.78
2023-02-11T10:44:30.466Z,100681.78
2023-02-11T10:47:03.811Z,100680.69
2023-02-11T10:49:42.907Z,100670.84
2023-02-11T10:52:25.064Z,100675.88
2023-02-11T10:55:13.892Z,100658.63
2023-02-11T10:57:59.480Z,100659.31
2023-02-11T11:00:39.307Z,100645.22
2023-02-11T11:03:25.316Z,100646.75
2023-02-11T11:05:59.653Z,100640.31
2023-02-11T11:08:50.809Z,100635.66
2023-02-11T11:11:24.186Z,100623.34
2023-02-11T11:14:00.640Z,100625.09
2023-02-11T11:16:36.849Z,100632.63
2023-02-11T11:19:07.389Z,100627.47
2023-02-11T11:21:53.401Z,100631.06
2023-02-11T11:24:44.795Z,100614.59
2023-02-11T11:27:22.125Z,100615.81
2023-02-11T11:29:55.505Z,100611.06
2023-02-11T11:32:28.535Z,100608.69
2023-02-11T11:35:02.694Z,100610.47
2023-02-11T11:37:37.219Z,100607.50
2023-02-11T11:40:15.851Z,100616.22
2023-02-11T11:42:43.718Z,100600.53
2023-02-11T11:45:20.077Z,100608.09
2023-02-11T11:48:20.859Z,100598.81
2023-02-11T11:50:57.697Z,100596.78
2023-02-11T11:53:31.249Z,100595.84
2023-02-11T11:56:22.389Z,100598.34
2023-02-11T11:58:51.449Z,100595.25
2023-02-11T12:01:51.758Z,100592.28
2023-02-11T12:04:40.646Z,100589.97
2023-02-11T12:07:34.545Z,100590.66
2023-02-11T12:10:40.510Z,100591.38
2023-02-11T12:13:18.261Z,100587.41
2023-02-11T12:16:10.085Z,100582.88
2023-02-11T12:19:10.704Z,100582.56
2023-02-11T12:21:56.343Z,100587.06
2023-02-11T12:25:17.286Z,100580.44
2023-02-11T12:28:26.248Z,100585.53
2023-02-11T12:31:26.306Z,100581.97
2023-02-11T12:34:17.049Z,100591.63
2023-02-11T12:37:07.752Z,100584.72
2023-02-11T12:39:50.831Z,100590.31
2023-02-11T12:43:14.765Z,100580.81
2023-02-11T12:46:02.595Z,100577.47
2023-02-11T12:49:16.002Z,100580.66
2023-02-11T12:52:12.004Z,100581.16
2023-02-11T12:54:58.488Z,100571.66
2023-02-11T12:57:30.261Z,100574.41
2023-02-11T13:00:15.901Z,100566.78
2023-02-11T13:02:55.774Z,100562.13
2023-02-11T13:05:28.382Z,100564.50
2023-02-11T13:08:21.223Z,100554.56
2023-02-11T13:10:54.890Z,100554.28
2023-02-11T13:13:30.754Z,100554.78
2023-02-11T13:16:10.028Z,100554.44
2023-02-11T13:19:01.416Z,100554.50
2023-02-11T13:22:07.964Z,100546.25
2023-02-11T13:25:01.338Z,100546.25
2023-02-11T13:28:03.408Z,100550.53
2023-02-11T13:30:35.810Z,100551.69
2023-02-11T13:33:16.627Z,100544.38
2023-02-11T13:36:04.895Z,100539.94
2023-02-11T13:38:33.637Z,100537.72
2023-02-11T13:41:24.807Z,100540.81
2023-02-11T13:44:11.103Z,100538.81
2023-02-11T13:46:53.851Z,100533.84
2023-02-11T13:49:27.906Z,100531.09
2023-02-11T13:51:57.029Z,100535.44
2023-02-11T13:54:34.882Z,100539.19
2023-02-11T13:57:20.868Z,100536.72
2023-02-11T14:00:02.097Z,100535.72
2023-02-11T14:02:52.816Z,100538.34
2023-02-11T14:05:48.038Z,100530.63
2023-02-11T14:08:40.372Z,100526.84
2023-02-11T14:11:34.140Z,100523.34
2023-02-11T14:14:33.537Z,100524.00
2023-02-11T14:17:07.046Z,100522.72
2023-02-11T14:19:38.453Z,100528.56
2023-02-11T14:22:41.648Z,100523.97
2023-02-11T14:25:25.445Z,100527.88
2023-02-11T14:28:23.842Z,100540.94
2023-02-11T14:31:05.155Z,100529.16
2023-02-11T14:33:48.188Z,100524.41
2023-02-11T14:36:53.306Z,100527.09
2023-02-11T14:39:53.771Z,100514.75
2023-02-11T14:42:26.794Z,100518.25
2023-02-11T14:44:57.556Z,100525.09
2023-02-11T14:47:52.551Z,100526.66
2023-02-11T14:50:32.869Z,100533.78
2023-02-11T14:53:03.113Z,100532.00
2023-02-11T14:55:41.657Z,100539.19
2023-02-11T14:58:46.407Z,100536.88
2023-02-11T15:01:41.935Z,100537.72
2023-02-11T15:04:30.933Z,100541.50
2023-02-11T15:07:08.277Z,100540.31
2023-02-11T15:09:53.078Z,100547.28
2023-02-11T15:12:28.573Z,100550.13
2023-02-11T15:15:00.000Z,100545.00
2023-02-11T15:17:31.781Z,100540.75
2023-02-11T15:20:02.285Z,100529.88
2023-02-11T15:22:36.820Z,100539.16
2023-02-11T15:25:07.189Z,100537.47
2023-02-11T15:27:49.542Z,100549.59
2023-02-11T15:30:26.353Z,100541.72
2023-02-11T15:33:02.713Z,100534.63
2023-02-11T15:35:38.080Z,100538.00
2023-02-11T15:38:06.059Z,100545.88
2023-02-11T15:40:36.799Z,100550.91
2023-02-11T15:43:07.565Z,100552.94
2023-02-11T15:45:53.575Z,100561.41
2023-02-11T15:48:53.736Z,100560.06
2023-02-11T15:51:35.502Z,100563.34
2023-02-11T15:54:16.558Z,100564.69
2023-02-11T15:56:48.562Z,100564.59
2023-02-11T15:59:30.667Z,100565.06
2023-02-11T16:02:24.696Z,100570.22
2023-02-11T16:05:07.468Z,100570.22
2023-02-11T16:07:47.910Z,100578.56
2023-02-11T16:10:20.194Z,100575.91
2023-02-11T16:13:14.107Z,100583.38
2023-02-11T16:15:53.175Z,100589.50
2023-02-11T16:18:40.288Z,100585.56
2023-02-11T16:21:17.847Z,100595.19
2023-02-11T16:23:54.072Z,100604.28
2023-02-11T16:26:34.948Z,100606.28
2023-02-11T16:29:24.865Z,100606.66
2023-02-11T16:31:55.548Z,100614.50
2023-02-11T16:34:25.660Z,100610.75
2023-02-11T16:36:53.845Z,100616.00
2023-02-11T16:39:22.459Z,100616.00
2023-02-11T16:41:51.473Z,100621.63
2023-02-11T16:44:19.946Z,100629.78
2023-02-11T16:46:48.066Z,100630.75
2023-02-11T16:49:44.488Z,100636.31
2023-02-11T16:52:15.809Z,100633.53
2023-02-11T16:54:43.804Z,100634.97
2023-02-11T16:57:28.828Z,100631.19
2023-02-11T16:59:59.078Z,100635.50
2023-02-11T17:02:31.079Z,100630.94
2023-02-11T17:05:03.387Z,100645.50
2023-02-11T17:07:31.789Z,100644.72
2023-02-11T17:09:59.747Z,100652.06
2023-02-11T17:12:27.449Z,100650.19
2023-02-11T17:14:55.107Z,100652.03
2023-02-11T17:17:23.832Z,100655.13
2023-02-11T17:19:51.536Z,100663.41
2023-02-11T17:22:19.372Z,100666.84
2023-02-11T17:24:46.935Z,100665.16
2023-02-11T17:27:15.152Z,100661.44
2023-02-11T17:29:42.758Z,100658.94
2023-02-11T17:32:10.459Z,100654.31
2023-02-11T17:34:38.304Z,100649.13
2023-02-11T17:37:09.668Z,100653.63
2023-02-11T17:39:40.104Z,100655.22
2023-02-11T17:42:08.811Z,100660.75
2023-02-11T17:44:37.236Z,100650.06
2023-02-11T17:47:05.065Z,100654.84
2023-02-11T17:49:32.769Z,100662.78
2023-02-11T17:52:00.794Z,100660.84
2023-02-11T17:54:28.432Z,100666.38
2023-02-11T17:56:58.317Z,100666.44
2023-02-11T17:59:28.441Z,100662.75
2023-02-11T18:01:56.096Z,100666.44
2023-02-11T18:04:24.024Z,100670.13
2023-02-11T18:06:53.607Z,100677.25
2023-02-11T18:09:21.395Z,100680.88
2023-02-11T18:11:52.582Z,100681.91
2023-02-11T18:14:21.246Z,100684.91
2023-02-11T18:16:53.304Z,100685.25
2023-02-11T18:19:21.400Z,100689.44
2023-02-11T18:21:50.335Z,100696.31
2023-02-11T18:24:18.967Z,100687.00
2023-02-11T18:26:46.694Z,100691.50
2023-02-11T18:29:14.349Z,100680.78
2023-02-11T18:31:42.147Z,100690.63
2023-02-11T18:34:11.682Z,100689.66
2023-02-11T18:36:39.581Z,100689.50
2023-02-11T18:39:07.404Z,100698.41
2023-02-11T18:41:35.853Z,100693.13
2023-02-11T18:44:04.850Z,100697.91
2023-02-11T18:46:32.851Z,100696.78
2023-02-11T18:49:01.058Z,100697.78
2023-02-11T18:51:31.821Z,100691.44
2023-02-11T18:54:01.088Z,100699.44
2023-02-11T18:56:28.869Z,100700.44
2023-02-11T18:58:58.227Z,100707.91
2023-02-11T19:01:28.385Z,100702.72
2023-02-11T19:03:58.782Z,100701.81
2023-02-11T19:06:30.232Z,100708.16
2023-02-11T19:09:01.572Z,100707.13
2023-02-11T19:11:49.838Z,100700.25
2023-02-11T19:14:27.231Z,100699.53
2023-02-11T19:16:58.329Z,100699.06
2023-02-11T19:19:29.909Z,100700.22
2023-02-11T19:21:59.353Z,100705.75
2023-02-11T19:24:31.319Z,100701.13
2023-02-11T19:27:03.112Z,100703.66
2023-02-11T19:29:34.978Z,100700.75
2023-02-11T19:32:06.710Z,100698.03
2023-02-11T19:34:41.204Z,100701.56
2023-02-11T19:37:16.188Z,100705.19
2023-02-11T19:39:43.964Z,100705.16
2023-02-11T19:42:12.715Z,100698.00
2023-02-11T19:44:40.628Z,100705.16
2023-02-11T19:47:10.215Z,100699.84
2023-02-11T19:49:38.046Z,100706.03
2023-02-11T19:52:05.711Z,100699.81
2023-02-11T19:54:33.668Z,100700.69
2023-02-11T19:57:01.286Z,100706.25
2023-02-11T19:59:29.170Z,100697.28
2023-02-11T20:01:57.607Z,100703.78
2023-02-11T20:04:25.266Z,100705.81
2023-02-11T20:06:52.864Z,100706.00
2023-02-11T20:09:21.673Z,100698.78
2023-02-11T20:11:49.416Z,100696.94
2023-02-11T20:14:17.278Z,100713.06
2023-02-11T20:16:49.279Z,100709.41
2023-02-11T20:19:21.582Z,100711.13
2023-02-11T20:21:53.177Z,100711.09
2023-02-11T20:24:21.738Z,100705.63
2023-02-11T20:26:51.568Z,100702.84
2023-02-11T20:29:19.740Z,100703.88
2023-02-11T20:31:49.165Z,100700.34
2023-02-11T20:34:17.865Z,100699.50
2023-02-11T20:36:51.841Z,100698.56
2023-02-11T20:39:22.653Z,100697.78
2023-02-11T20:41:51.614Z,100695.84
2023-02-11T20:44:21.615Z,100691.38
2023-02-11T20:46:50.332Z,100695.00
2023-02-11T20:49:21.580Z,100705.75
2023-02-11T20:51:51.277Z,100701.31
2023-02-11T20:54:20.959Z,100696.84
2023-02-11T20:56:51.283Z,100704.91
2023-02-11T20:59:21.013Z,100703.16
2023-02-11T21:01:55.567Z,100707.84
2023-02-11T21:04:27.565Z,100698.94
2023-02-11T21:06:59.558Z,100703.34
2023-02-11T21:09:31.528Z,100713.28
2023-02-11T21:11:59.720Z,100705.94
2023-02-11T21:14:28.492Z,100711.31
2023-02-11T21:16:56.326Z,100719.41
2023-02-11T21:19:24.240Z,100714.03
2023-02-11T21:21:52.005Z,100704.22
2023-02-11T21:24:19.732Z,100710.28
2023-02-11T21:26:47.389Z,100705.88
2023-02-11T21:29:15.094Z,100716.94
2023-02-11T21:31:43.136Z,100726.81
2023-02-11T21:34:16.612Z,100722.22
2023-02-11T21:36:45.130Z,100722.16
2023-02-11T21:39:13.652Z,100727.47
2023-02-11T21:41:41.503Z,100730.19
2023-02-11T21:44:09.393Z,100731.06
2023-02-11T21:46:37.369Z,100727.47
2023-02-11T21:49:05.154Z,100735.59
2023-02-11T21:51:33.032Z,100744.28
2023-02-11T21:54:02.677Z,100752.28
2023-02-11T21:56:33.387Z,100757.66
2023-02-11T21:59:01.568Z,100744.91
2023-02-11T22:01:32.544Z,100738.47
2023-02-11T22:04:00.697Z,100738.34
2023-02-11T22:06:31.906Z,100750.88
2023-02-11T22:09:06.234Z,100753.34
2023-02-11T22:11:34.343Z,100741.72
2023-02-11T22:14:02.114Z,100753.47
2023-02-11T22:16:30.910Z,100749.66
2023-02-11T22:19:00.221Z,100752.38
2023-02-11T22:21:28.076Z,100758.50
2023-02-11T22:23:57.063Z,100756.78
2023-02-11T22:26:27.099Z,100745.06
2023-02-11T22:28:55.537Z,100760.34
2023-02-11T22:31:28.404Z,100753.38
2023-02-11T22:34:03.738Z,100757.69
2023-02-11T22:36:38.903Z,100764.03
2023-02-11T22:39:17.773Z,100764.97
2023-02-11T22:41:48.556Z,100771.19
2023-02-11T22:44:17.668Z,100760.34
2023-02-11T22:46:45.643Z,100762.00
2023-02-11T22:49:16.497Z,100762.25
2023-02-11T22:51:44.924Z,100756.88
2023-02-11T22:54:16.063Z,100754.94
2023-02-11T22:56:44.971Z,100748.44
2023-02-11T22:59:15.278Z,100753.66
2023-02-11T23:01:43.844Z,100754.47
2023-02-11T23:04:15.882Z,100755.31
2023-02-11T23:06:43.981Z,100764.25
2023-02-11T23:09:15.098Z,100756.16
2023-02-11T23:11:42.963Z,100750.72
2023-02-11T23:14:12.059Z,100749.94
2023-02-11T23:16:40.023Z,100753.66
2023-02-11T23:19:10.615Z,100753.94
2023-02-11T23:21:39.799Z,100755.13
2023-02-11T23:24:16.622Z,100763.97
2023-02-11T23:26:44.962Z,100757.78
2023-02-11T23:29:13.379Z,100763.03
2023-02-11T23:31:45.875Z,100763.75
2023-02-11T23:34:17.234Z,100766.34
2023-02-11T23:36:45.276Z,100766.28
2023-02-11T23:39:15.743Z,100769.75
2023-02-11T23:41:43.921Z,100777.88
2023-02-11T23:44:12.010Z,100771.53
2023-02-11T23:46:39.722Z,100778.59
2023-02-11T23:49:07.443Z,100770.69
2023-02-11T23:51:35.198Z,100772.44
2023-02-11T23:54:03.243Z,100775.13
2023-02-11T23:56:31.070Z,100769.97
2023-02-11T23:58:59.509Z,100775.31
